sensor_id;sensor_type;location;lat;lon;timestamp;P1;durP1;ratioP1;P2;durP2;ratioP2
48859;SDS011;34679;51.436;-2.518;2023-06-04T00:01:20;10.60;;;2.90;;
48859;SDS011;34679;51.436;-2.518;2023-06-04T00:03:46;13.50;;;3.03;;
48859;SDS011;34679;51.436;-2.518;2023-06-04T00:06:12;8.43;;;4.10;;
48859;SDS011;34679;51.436;-2.518;2023-06-04T00:08:38;8.93;;;3.47;;
48859;SDS011;34679;51.436;-2.518;2023-06-04T00:11:04;14.52;;;4.47;;
48859;SDS011;34679;51.436;-2.518;2023-06-04T00:13:30;10.50;;;3.38;;
48859;SDS011;34679;51.436;-2.518;2023-06-04T00:15:55;17.08;;;4.00;;
48859;SDS011;34679;51.436;-2.518;2023-06-04T00:18:21;15.15;;;4.05;;
48859;SDS011;34679;51.436;-2.518;2023-06-04T00:20:47;10.35;;;4.13;;
48859;SDS011;34679;51.436;-2.518;2023-06-04T00:23:13;11.23;;;3.90;;
48859;SDS011;34679;51.436;-2.518;2023-06-04T00:25:38;11.55;;;4.20;;
48859;SDS011;34679;51.436;-2.518;2023-06-04T00:28:04;9.23;;;3.65;;
48859;SDS011;34679;51.436;-2.518;2023-06-04T00:30:30;18.55;;;5.15;;
48859;SDS011;34679;51.436;-2.518;2023-06-04T00:32:56;9.05;;;4.22;;
48859;SDS011;34679;51.436;-2.518;2023-06-04T00:35:21;13.55;;;4.47;;
48859;SDS011;34679;51.436;-2.518;2023-06-04T00:37:47;21.52;;;4.65;;
48859;SDS011;34679;51.436;-2.518;2023-06-04T00:40:13;11.60;;;4.85;;
48859;SDS011;34679;51.436;-2.518;2023-06-04T00:42:39;8.25;;;3.65;;
48859;SDS011;34679;51.436;-2.518;2023-06-04T00:45:05;12.93;;;4.07;;
48859;SDS011;34679;51.436;-2.518;2023-06-04T00:47:32;19.33;;;4.93;;
48859;SDS011;34679;51.436;-2.518;2023-06-04T00:49:58;18.70;;;4.53;;
48859;SDS011;34679;51.436;-2.518;2023-06-04T00:52:25;12.10;;;4.60;;
48859;SDS011;34679;51.436;-2.518;2023-06-04T00:54:51;13.32;;;4.57;;
48859;SDS011;34679;51.436;-2.518;2023-06-04T00:57:19;14.70;;;4.93;;
48859;SDS011;34679;51.436;-2.518;2023-06-04T00:59:46;14.60;;;4.50;;
48859;SDS011;34679;51.436;-2.518;2023-06-04T01:02:13;10.77;;;4.15;;
48859;SDS011;34679;51.436;-2.518;2023-06-04T01:07:11;11.35;;;4.03;;
48859;SDS011;34679;51.436;-2.518;2023-06-04T01:09:39;10.13;;;4.00;;
48859;SDS011;34679;51.436;-2.518;2023-06-04T01:12:05;18.40;;;4.13;;
48859;SDS011;34679;51.436;-2.518;2023-06-04T01:14:32;11.50;;;3.88;;
48859;SDS011;34679;51.436;-2.518;2023-06-04T01:17:02;16.98;;;4.63;;
48859;SDS011;34679;51.436;-2.518;2023-06-04T01:25:54;12.98;;;4.70;;
48859;SDS011;34679;51.436;-2.518;2023-06-04T01:27:59;11.73;;;3.75;;
48859;SDS011;34679;51.436;-2.518;2023-06-04T01:30:29;14.57;;;4.15;;
48859;SDS011;34679;51.436;-2.518;2023-06-04T01:32:57;12.80;;;4.35;;
48859;SDS011;34679;51.436;-2.518;2023-06-04T01:35:25;13.85;;;3.70;;
48859;SDS011;34679;51.436;-2.518;2023-06-04T01:37:51;10.15;;;3.90;;
48859;SDS011;34679;51.436;-2.518;2023-06-04T01:40:18;10.77;;;3.88;;
48859;SDS011;34679;51.436;-2.518;2023-06-04T01:42:44;9.48;;;3.40;;
48859;SDS011;34679;51.436;-2.518;2023-06-04T01:45:12;17.17;;;4.70;;
48859;SDS011;34679;51.436;-2.518;2023-06-04T01:47:38;12.18;;;3.88;;
48859;SDS011;34679;51.436;-2.518;2023-06-04T01:50:05;11.52;;;3.92;;
48859;SDS011;34679;51.436;-2.518;2023-06-04T01:52:37;9.60;;;3.80;;
48859;SDS011;34679;51.436;-2.518;2023-06-04T01:55:06;6.50;;;3.63;;
48859;SDS011;34679;51.436;-2.518;2023-06-04T01:57:34;11.98;;;4.35;;
48859;SDS011;34679;51.436;-2.518;2023-06-04T02:00:01;15.07;;;4.13;;
48859;SDS011;34679;51.436;-2.518;2023-06-04T02:02:27;10.73;;;3.95;;
48859;SDS011;34679;51.436;-2.518;2023-06-04T02:04:58;12.13;;;3.80;;
48859;SDS011;34679;51.436;-2.518;2023-06-04T02:07:24;13.60;;;3.78;;
48859;SDS011;34679;51.436;-2.518;2023-06-04T02:09:51;13.13;;;4.22;;
48859;SDS011;34679;51.436;-2.518;2023-06-04T02:12:17;17.38;;;3.60;;
48859;SDS011;34679;51.436;-2.518;2023-06-04T02:14:43;15.52;;;4.00;;
48859;SDS011;34679;51.436;-2.518;2023-06-04T02:17:12;11.93;;;3.75;;
48859;SDS011;34679;51.436;-2.518;2023-06-04T02:19:40;15.27;;;4.03;;
48859;SDS011;34679;51.436;-2.518;2023-06-04T02:22:13;10.15;;;3.53;;
48859;SDS011;34679;51.436;-2.518;2023-06-04T02:24:42;11.43;;;3.78;;
48859;SDS011;34679;51.436;-2.518;2023-06-04T02:27:08;14.00;;;4.32;;
48859;SDS011;34679;51.436;-2.518;2023-06-04T02:29:35;14.27;;;4.32;;
48859;SDS011;34679;51.436;-2.518;2023-06-04T02:32:02;14.18;;;3.72;;
48859;SDS011;34679;51.436;-2.518;2023-06-04T02:34:28;14.60;;;4.13;;
48859;SDS011;34679;51.436;-2.518;2023-06-04T02:36:54;12.00;;;4.13;;
48859;SDS011;34679;51.436;-2.518;2023-06-04T02:39:19;13.90;;;3.67;;
48859;SDS011;34679;51.436;-2.518;2023-06-04T02:41:45;12.57;;;4.60;;
48859;SDS011;34679;51.436;-2.518;2023-06-04T02:44:11;12.23;;;3.53;;
48859;SDS011;34679;51.436;-2.518;2023-06-04T02:46:37;11.00;;;3.88;;
48859;SDS011;34679;51.436;-2.518;2023-06-04T02:49:03;13.40;;;3.85;;
48859;SDS011;34679;51.436;-2.518;2023-06-04T02:51:29;13.65;;;3.83;;
48859;SDS011;34679;51.436;-2.518;2023-06-04T02:53:55;15.65;;;4.40;;
48859;SDS011;34679;51.436;-2.518;2023-06-04T02:56:21;11.93;;;3.90;;
48859;SDS011;34679;51.436;-2.518;2023-06-04T02:58:50;17.38;;;4.25;;
48859;SDS011;34679;51.436;-2.518;2023-06-04T03:01:21;14.40;;;4.25;;
48859;SDS011;34679;51.436;-2.518;2023-06-04T03:03:51;17.08;;;4.45;;
48859;SDS011;34679;51.436;-2.518;2023-06-04T03:06:20;17.95;;;4.03;;
48859;SDS011;34679;51.436;-2.518;2023-06-04T03:08:47;15.93;;;4.63;;
48859;SDS011;34679;51.436;-2.518;2023-06-04T03:11:13;16.75;;;4.25;;
48859;SDS011;34679;51.436;-2.518;2023-06-04T03:13:39;16.13;;;4.15;;
48859;SDS011;34679;51.436;-2.518;2023-06-04T03:16:05;17.85;;;3.38;;
48859;SDS011;34679;51.436;-2.518;2023-06-04T03:18:34;9.00;;;3.58;;
48859;SDS011;34679;51.436;-2.518;2023-06-04T03:21:07;11.68;;;4.03;;
48859;SDS011;34679;51.436;-2.518;2023-06-04T03:23:34;10.30;;;3.15;;
48859;SDS011;34679;51.436;-2.518;2023-06-04T03:26:01;14.07;;;3.67;;
48859;SDS011;34679;51.436;-2.518;2023-06-04T03:28:27;12.07;;;4.20;;
48859;SDS011;34679;51.436;-2.518;2023-06-04T03:30:53;16.00;;;4.10;;
48859;SDS011;34679;51.436;-2.518;2023-06-04T03:33:19;12.38;;;3.15;;
48859;SDS011;34679;51.436;-2.518;2023-06-04T03:35:45;10.95;;;4.05;;
48859;SDS011;34679;51.436;-2.518;2023-06-04T03:38:10;10.05;;;3.42;;
48859;SDS011;34679;51.436;-2.518;2023-06-04T03:40:36;15.82;;;4.45;;
48859;SDS011;34679;51.436;-2.518;2023-06-04T03:43:02;11.88;;;3.10;;
48859;SDS011;34679;51.436;-2.518;2023-06-04T03:45:29;12.48;;;3.78;;
48859;SDS011;34679;51.436;-2.518;2023-06-04T03:47:55;20.20;;;3.75;;
48859;SDS011;34679;51.436;-2.518;2023-06-04T03:50:21;9.43;;;3.63;;
48859;SDS011;34679;51.436;-2.518;2023-06-04T03:52:50;12.73;;;3.65;;
48859;SDS011;34679;51.436;-2.518;2023-06-04T03:55:15;12.63;;;3.80;;
48859;SDS011;34679;51.436;-2.518;2023-06-04T03:57:41;19.33;;;4.05;;
48859;SDS011;34679;51.436;-2.518;2023-06-04T04:00:08;13.63;;;3.60;;
48859;SDS011;34679;51.436;-2.518;2023-06-04T04:02:41;17.83;;;3.78;;
48859;SDS011;34679;51.436;-2.518;2023-06-04T04:05:07;15.82;;;3.33;;
48859;SDS011;34679;51.436;-2.518;2023-06-04T04:07:34;12.05;;;3.42;;
48859;SDS011;34679;51.436;-2.518;2023-06-04T04:10:00;15.10;;;3.92;;
48859;SDS011;34679;51.436;-2.518;2023-06-04T04:12:26;16.33;;;3.75;;
48859;SDS011;34679;51.436;-2.518;2023-06-04T04:14:51;10.90;;;3.70;;
48859;SDS011;34679;51.436;-2.518;2023-06-04T04:17:17;10.13;;;3.45;;
48859;SDS011;34679;51.436;-2.518;2023-06-04T04:19:42;14.93;;;3.60;;
48859;SDS011;34679;51.436;-2.518;2023-06-04T04:22:10;10.25;;;3.55;;
48859;SDS011;34679;51.436;-2.518;2023-06-04T04:24:36;14.63;;;3.83;;
48859;SDS011;34679;51.436;-2.518;2023-06-04T04:27:02;8.82;;;4.25;;
48859;SDS011;34679;51.436;-2.518;2023-06-04T04:29:29;15.75;;;4.10;;
48859;SDS011;34679;51.436;-2.518;2023-06-04T04:31:57;12.32;;;3.47;;
48859;SDS011;34679;51.436;-2.518;2023-06-04T04:34:25;14.23;;;4.05;;
48859;SDS011;34679;51.436;-2.518;2023-06-04T04:36:51;12.27;;;4.20;;
48859;SDS011;34679;51.436;-2.518;2023-06-04T04:39:23;13.75;;;3.35;;
48859;SDS011;34679;51.436;-2.518;2023-06-04T04:41:50;8.80;;;2.70;;
48859;SDS011;34679;51.436;-2.518;2023-06-04T04:44:16;14.32;;;3.63;;
48859;SDS011;34679;51.436;-2.518;2023-06-04T04:46:42;7.93;;;2.63;;
48859;SDS011;34679;51.436;-2.518;2023-06-04T04:49:08;11.05;;;2.55;;
48859;SDS011;34679;51.436;-2.518;2023-06-04T04:51:34;14.43;;;2.85;;
48859;SDS011;34679;51.436;-2.518;2023-06-04T04:54:00;11.32;;;3.17;;
48859;SDS011;34679;51.436;-2.518;2023-06-04T04:56:26;9.65;;;3.08;;
48859;SDS011;34679;51.436;-2.518;2023-06-04T04:58:52;8.38;;;2.75;;
48859;SDS011;34679;51.436;-2.518;2023-06-04T05:01:19;11.27;;;2.83;;
48859;SDS011;34679;51.436;-2.518;2023-06-04T05:03:45;8.93;;;2.65;;
48859;SDS011;34679;51.436;-2.518;2023-06-04T05:06:11;7.22;;;2.60;;
48859;SDS011;34679;51.436;-2.518;2023-06-04T05:08:36;8.85;;;2.50;;
48859;SDS011;34679;51.436;-2.518;2023-06-04T05:11:02;7.90;;;2.40;;
48859;SDS011;34679;51.436;-2.518;2023-06-04T05:13:28;8.68;;;2.20;;
48859;SDS011;34679;51.436;-2.518;2023-06-04T05:15:54;8.18;;;2.53;;
48859;SDS011;34679;51.436;-2.518;2023-06-04T05:18:20;8.63;;;1.98;;
48859;SDS011;34679;51.436;-2.518;2023-06-04T05:20:46;6.65;;;2.25;;
48859;SDS011;34679;51.436;-2.518;2023-06-04T05:23:12;7.20;;;2.05;;
48859;SDS011;34679;51.436;-2.518;2023-06-04T05:25:38;6.60;;;2.47;;
48859;SDS011;34679;51.436;-2.518;2023-06-04T05:28:05;10.77;;;2.85;;
48859;SDS011;34679;51.436;-2.518;2023-06-04T05:30:32;8.10;;;2.58;;
48859;SDS011;34679;51.436;-2.518;2023-06-04T05:32:58;7.22;;;2.10;;
48859;SDS011;34679;51.436;-2.518;2023-06-04T05:35:24;6.10;;;2.20;;
48859;SDS011;34679;51.436;-2.518;2023-06-04T05:37:50;7.18;;;2.20;;
48859;SDS011;34679;51.436;-2.518;2023-06-04T05:40:22;10.88;;;2.47;;
48859;SDS011;34679;51.436;-2.518;2023-06-04T05:42:48;8.35;;;2.78;;
48859;SDS011;34679;51.436;-2.518;2023-06-04T05:45:13;11.05;;;2.95;;
48859;SDS011;34679;51.436;-2.518;2023-06-04T05:47:39;7.32;;;2.42;;
48859;SDS011;34679;51.436;-2.518;2023-06-04T05:50:06;8.38;;;3.00;;
48859;SDS011;34679;51.436;-2.518;2023-06-04T05:52:32;8.13;;;2.53;;
48859;SDS011;34679;51.436;-2.518;2023-06-04T05:55:02;6.47;;;3.17;;
48859;SDS011;34679;51.436;-2.518;2023-06-04T05:57:27;8.80;;;2.83;;
48859;SDS011;34679;51.436;-2.518;2023-06-04T05:59:53;8.35;;;2.50;;
48859;SDS011;34679;51.436;-2.518;2023-06-04T06:02:19;8.20;;;2.80;;
48859;SDS011;34679;51.436;-2.518;2023-06-04T06:04:44;8.93;;;3.03;;
48859;SDS011;34679;51.436;-2.518;2023-06-04T06:07:10;8.25;;;3.00;;
48859;SDS011;34679;51.436;-2.518;2023-06-04T06:09:36;6.40;;;2.42;;
48859;SDS011;34679;51.436;-2.518;2023-06-04T06:12:01;8.23;;;2.78;;
48859;SDS011;34679;51.436;-2.518;2023-06-04T06:14:27;6.57;;;2.80;;
48859;SDS011;34679;51.436;-2.518;2023-06-04T06:16:53;9.40;;;3.00;;
48859;SDS011;34679;51.436;-2.518;2023-06-04T06:19:19;8.48;;;3.15;;
48859;SDS011;34679;51.436;-2.518;2023-06-04T06:21:44;11.55;;;2.80;;
48859;SDS011;34679;51.436;-2.518;2023-06-04T06:24:10;7.72;;;2.80;;
48859;SDS011;34679;51.436;-2.518;2023-06-04T06:26:36;9.43;;;3.20;;
48859;SDS011;34679;51.436;-2.518;2023-06-04T06:29:02;7.65;;;2.80;;
48859;SDS011;34679;51.436;-2.518;2023-06-04T06:31:27;4.53;;;2.47;;
48859;SDS011;34679;51.436;-2.518;2023-06-04T06:33:53;11.82;;;3.13;;
48859;SDS011;34679;51.436;-2.518;2023-06-04T06:36:19;10.73;;;3.00;;
48859;SDS011;34679;51.436;-2.518;2023-06-04T06:38:45;8.43;;;2.78;;
48859;SDS011;34679;51.436;-2.518;2023-06-04T06:41:11;9.10;;;2.83;;
48859;SDS011;34679;51.436;-2.518;2023-06-04T06:43:37;5.78;;;2.72;;
48859;SDS011;34679;51.436;-2.518;2023-06-04T06:46:02;3.88;;;2.30;;
48859;SDS011;34679;51.436;-2.518;2023-06-04T06:48:28;5.57;;;2.75;;
48859;SDS011;34679;51.436;-2.518;2023-06-04T06:50:54;4.88;;;2.67;;
48859;SDS011;34679;51.436;-2.518;2023-06-04T06:53:20;8.55;;;2.65;;
48859;SDS011;34679;51.436;-2.518;2023-06-04T06:55:46;7.90;;;3.35;;
48859;SDS011;34679;51.436;-2.518;2023-06-04T06:58:12;8.98;;;2.60;;
48859;SDS011;34679;51.436;-2.518;2023-06-04T07:00:38;7.78;;;2.78;;
48859;SDS011;34679;51.436;-2.518;2023-06-04T07:03:03;5.53;;;2.50;;
48859;SDS011;34679;51.436;-2.518;2023-06-04T07:05:29;5.90;;;2.47;;
48859;SDS011;34679;51.436;-2.518;2023-06-04T07:07:55;6.95;;;2.83;;
48859;SDS011;34679;51.436;-2.518;2023-06-04T07:10:22;9.38;;;3.15;;
48859;SDS011;34679;51.436;-2.518;2023-06-04T07:12:48;3.65;;;2.33;;
48859;SDS011;34679;51.436;-2.518;2023-06-04T07:15:14;6.03;;;2.45;;
48859;SDS011;34679;51.436;-2.518;2023-06-04T07:17:40;7.75;;;2.25;;
48859;SDS011;34679;51.436;-2.518;2023-06-04T07:20:05;4.78;;;2.50;;
48859;SDS011;34679;51.436;-2.518;2023-06-04T07:22:33;7.28;;;2.45;;
48859;SDS011;34679;51.436;-2.518;2023-06-04T07:24:59;10.40;;;2.28;;
48859;SDS011;34679;51.436;-2.518;2023-06-04T07:27:25;9.43;;;2.67;;
48859;SDS011;34679;51.436;-2.518;2023-06-04T07:29:51;9.60;;;2.75;;
48859;SDS011;34679;51.436;-2.518;2023-06-04T07:32:17;9.77;;;3.30;;
48859;SDS011;34679;51.436;-2.518;2023-06-04T07:34:43;6.90;;;3.03;;
48859;SDS011;34679;51.436;-2.518;2023-06-04T07:37:08;6.10;;;2.83;;
48859;SDS011;34679;51.436;-2.518;2023-06-04T07:39:34;7.03;;;2.40;;
48859;SDS011;34679;51.436;-2.518;2023-06-04T07:42:01;8.73;;;2.97;;
48859;SDS011;34679;51.436;-2.518;2023-06-04T07:44:27;9.98;;;2.50;;
48859;SDS011;34679;51.436;-2.518;2023-06-04T07:46:52;4.70;;;2.28;;
48859;SDS011;34679;51.436;-2.518;2023-06-04T07:49:18;7.50;;;2.53;;
48859;SDS011;34679;51.436;-2.518;2023-06-04T07:51:45;7.13;;;2.65;;
48859;SDS011;34679;51.436;-2.518;2023-06-04T07:54:11;6.85;;;2.22;;
48859;SDS011;34679;51.436;-2.518;2023-06-04T07:56:38;6.45;;;2.15;;
48859;SDS011;34679;51.436;-2.518;2023-06-04T07:59:04;4.40;;;2.42;;
48859;SDS011;34679;51.436;-2.518;2023-06-04T08:01:30;5.60;;;2.45;;
48859;SDS011;34679;51.436;-2.518;2023-06-04T08:03:56;10.15;;;2.67;;
48859;SDS011;34679;51.436;-2.518;2023-06-04T08:06:23;7.85;;;2.13;;
48859;SDS011;34679;51.436;-2.518;2023-06-04T08:08:51;4.53;;;2.38;;
48859;SDS011;34679;51.436;-2.518;2023-06-04T08:11:17;6.70;;;2.55;;
48859;SDS011;34679;51.436;-2.518;2023-06-04T08:13:43;5.38;;;2.33;;
48859;SDS011;34679;51.436;-2.518;2023-06-04T08:16:09;5.28;;;2.30;;
48859;SDS011;34679;51.436;-2.518;2023-06-04T08:18:38;7.88;;;2.67;;
48859;SDS011;34679;51.436;-2.518;2023-06-04T08:21:05;6.57;;;2.90;;
48859;SDS011;34679;51.436;-2.518;2023-06-04T08:23:36;6.20;;;2.60;;
48859;SDS011;34679;51.436;-2.518;2023-06-04T08:26:01;6.18;;;2.53;;
48859;SDS011;34679;51.436;-2.518;2023-06-04T08:28:27;4.03;;;2.30;;
48859;SDS011;34679;51.436;-2.518;2023-06-04T08:30:53;3.90;;;2.10;;
48859;SDS011;34679;51.436;-2.518;2023-06-04T08:33:18;8.45;;;2.28;;
48859;SDS011;34679;51.436;-2.518;2023-06-04T08:35:44;6.45;;;2.10;;
48859;SDS011;34679;51.436;-2.518;2023-06-04T08:38:10;4.47;;;2.22;;
48859;SDS011;34679;51.436;-2.518;2023-06-04T08:40:35;7.43;;;2.30;;
48859;SDS011;34679;51.436;-2.518;2023-06-04T08:43:01;5.20;;;2.63;;
48859;SDS011;34679;51.436;-2.518;2023-06-04T08:45:27;8.05;;;1.92;;
48859;SDS011;34679;51.436;-2.518;2023-06-04T08:47:53;4.93;;;2.00;;
48859;SDS011;34679;51.436;-2.518;2023-06-04T08:50:20;4.45;;;1.92;;
48859;SDS011;34679;51.436;-2.518;2023-06-04T08:52:49;5.65;;;1.90;;
48859;SDS011;34679;51.436;-2.518;2023-06-04T08:55:17;4.25;;;1.88;;
48859;SDS011;34679;51.436;-2.518;2023-06-04T08:57:43;3.90;;;1.50;;
48859;SDS011;34679;51.436;-2.518;2023-06-04T09:00:10;3.17;;;1.70;;
48859;SDS011;34679;51.436;-2.518;2023-06-04T09:02:37;6.72;;;2.40;;
48859;SDS011;34679;51.436;-2.518;2023-06-04T09:05:03;7.30;;;1.80;;
48859;SDS011;34679;51.436;-2.518;2023-06-04T09:07:31;3.85;;;1.60;;
48859;SDS011;34679;51.436;-2.518;2023-06-04T09:10:01;4.32;;;1.63;;
48859;SDS011;34679;51.436;-2.518;2023-06-04T09:12:29;3.33;;;1.50;;
48859;SDS011;34679;51.436;-2.518;2023-06-04T09:14:55;4.72;;;1.45;;
48859;SDS011;34679;51.436;-2.518;2023-06-04T09:17:24;7.22;;;1.73;;
48859;SDS011;34679;51.436;-2.518;2023-06-04T09:19:50;3.40;;;1.40;;
48859;SDS011;34679;51.436;-2.518;2023-06-04T09:22:16;2.53;;;1.60;;
48859;SDS011;34679;51.436;-2.518;2023-06-04T09:24:43;6.22;;;1.65;;
48859;SDS011;34679;51.436;-2.518;2023-06-04T09:27:21;4.53;;;1.50;;
48859;SDS011;34679;51.436;-2.518;2023-06-04T09:32:23;5.88;;;1.63;;
48859;SDS011;34679;51.436;-2.518;2023-06-04T09:34:51;3.00;;;1.30;;
48859;SDS011;34679;51.436;-2.518;2023-06-04T09:37:18;3.50;;;1.55;;
48859;SDS011;34679;51.436;-2.518;2023-06-04T09:39:53;2.47;;;1.50;;
48859;SDS011;34679;51.436;-2.518;2023-06-04T09:42:22;3.30;;;1.35;;
48859;SDS011;34679;51.436;-2.518;2023-06-04T09:44:48;2.92;;;1.58;;
48859;SDS011;34679;51.436;-2.518;2023-06-04T09:47:14;4.97;;;1.70;;
48859;SDS011;34679;51.436;-2.518;2023-06-04T09:49:43;6.03;;;1.42;;
48859;SDS011;34679;51.436;-2.518;2023-06-04T09:52:09;4.88;;;1.90;;
48859;SDS011;34679;51.436;-2.518;2023-06-04T09:54:39;3.67;;;1.58;;
48859;SDS011;34679;51.436;-2.518;2023-06-04T09:57:16;4.25;;;1.83;;
48859;SDS011;34679;51.436;-2.518;2023-06-04T09:59:43;4.30;;;1.50;;
48859;SDS011;34679;51.436;-2.518;2023-06-04T10:02:11;3.92;;;1.40;;
48859;SDS011;34679;51.436;-2.518;2023-06-04T10:04:41;3.25;;;1.42;;
48859;SDS011;34679;51.436;-2.518;2023-06-04T10:07:11;8.70;;;1.90;;
48859;SDS011;34679;51.436;-2.518;2023-06-04T10:09:40;7.28;;;1.67;;
48859;SDS011;34679;51.436;-2.518;2023-06-04T10:12:11;1.95;;;1.27;;
48859;SDS011;34679;51.436;-2.518;2023-06-04T10:14:51;1.80;;;1.00;;
48859;SDS011;34679;51.436;-2.518;2023-06-04T10:17:21;4.57;;;1.40;;
48859;SDS011;34679;51.436;-2.518;2023-06-04T10:19:50;6.28;;;1.27;;
48859;SDS011;34679;51.436;-2.518;2023-06-04T10:22:19;8.20;;;1.17;;
48859;SDS011;34679;51.436;-2.518;2023-06-04T10:24:47;7.53;;;1.65;;
48859;SDS011;34679;51.436;-2.518;2023-06-04T10:27:14;3.55;;;1.60;;
48859;SDS011;34679;51.436;-2.518;2023-06-04T10:29:42;5.15;;;1.70;;
48859;SDS011;34679;51.436;-2.518;2023-06-04T10:32:09;6.78;;;1.50;;
48859;SDS011;34679;51.436;-2.518;2023-06-04T10:34:35;5.13;;;1.80;;
48859;SDS011;34679;51.436;-2.518;2023-06-04T10:37:01;3.20;;;1.20;;
48859;SDS011;34679;51.436;-2.518;2023-06-04T10:39:28;3.30;;;1.00;;
48859;SDS011;34679;51.436;-2.518;2023-06-04T10:42:03;4.15;;;1.60;;
48859;SDS011;34679;51.436;-2.518;2023-06-04T10:44:30;6.90;;;1.77;;
48859;SDS011;34679;51.436;-2.518;2023-06-04T10:46:57;6.43;;;1.70;;
48859;SDS011;34679;51.436;-2.518;2023-06-04T10:49:27;7.60;;;1.73;;
48859;SDS011;34679;51.436;-2.518;2023-06-04T10:51:54;2.85;;;1.10;;
48859;SDS011;34679;51.436;-2.518;2023-06-04T10:54:28;2.53;;;1.02;;
48859;SDS011;34679;51.436;-2.518;2023-06-04T10:56:54;9.38;;;1.42;;
48859;SDS011;34679;51.436;-2.518;2023-06-04T10:59:20;6.85;;;1.25;;
48859;SDS011;34679;51.436;-2.518;2023-06-04T11:01:46;4.28;;;1.55;;
48859;SDS011;34679;51.436;-2.518;2023-06-04T11:04:22;4.45;;;1.70;;
48859;SDS011;34679;51.436;-2.518;2023-06-04T11:06:59;2.20;;;1.40;;
48859;SDS011;34679;51.436;-2.518;2023-06-04T11:09:33;5.30;;;1.27;;
48859;SDS011;34679;51.436;-2.518;2023-06-04T11:12:00;8.27;;;1.40;;
48859;SDS011;34679;51.436;-2.518;2023-06-04T11:14:26;3.33;;;1.40;;
48859;SDS011;34679;51.436;-2.518;2023-06-04T11:16:52;2.35;;;1.30;;
48859;SDS011;34679;51.436;-2.518;2023-06-04T11:19:17;2.50;;;1.20;;
48859;SDS011;34679;51.436;-2.518;2023-06-04T11:21:43;1.52;;;1.10;;
48859;SDS011;34679;51.436;-2.518;2023-06-04T11:24:11;5.43;;;1.20;;
48859;SDS011;34679;51.436;-2.518;2023-06-04T11:26:37;2.58;;;1.02;;
48859;SDS011;34679;51.436;-2.518;2023-06-04T11:29:06;3.72;;;1.55;;
48859;SDS011;34679;51.436;-2.518;2023-06-04T11:31:42;7.57;;;1.25;;
48859;SDS011;34679;51.436;-2.518;2023-06-04T11:34:09;3.72;;;1.38;;
48859;SDS011;34679;51.436;-2.518;2023-06-04T11:36:38;2.13;;;1.20;;
48859;SDS011;34679;51.436;-2.518;2023-06-04T11:39:04;3.28;;;1.40;;
48859;SDS011;34679;51.436;-2.518;2023-06-04T11:41:33;3.65;;;1.13;;
48859;SDS011;34679;51.436;-2.518;2023-06-04T11:44:04;4.90;;;1.40;;
48859;SDS011;34679;51.436;-2.518;2023-06-04T11:46:40;3.17;;;0.90;;
48859;SDS011;34679;51.436;-2.518;2023-06-04T11:49:11;3.65;;;1.10;;
48859;SDS011;34679;51.436;-2.518;2023-06-04T11:51:37;3.25;;;1.42;;
48859;SDS011;34679;51.436;-2.518;2023-06-04T11:54:03;2.90;;;1.25;;
48859;SDS011;34679;51.436;-2.518;2023-06-04T11:56:29;3.75;;;1.30;;
48859;SDS011;34679;51.436;-2.518;2023-06-04T11:58:54;5.47;;;1.80;;
48859;SDS011;34679;51.436;-2.518;2023-06-04T12:01:21;10.05;;;2.70;;
48859;SDS011;34679;51.436;-2.518;2023-06-04T12:03:47;7.82;;;1.35;;
48859;SDS011;34679;51.436;-2.518;2023-06-04T12:06:17;3.33;;;0.90;;
48859;SDS011;34679;51.436;-2.518;2023-06-04T12:08:53;3.28;;;1.23;;
48859;SDS011;34679;51.436;-2.518;2023-06-04T12:11:27;3.40;;;1.63;;
48859;SDS011;34679;51.436;-2.518;2023-06-04T12:13:54;6.45;;;2.00;;
48859;SDS011;34679;51.436;-2.518;2023-06-04T12:16:21;3.42;;;1.38;;
48859;SDS011;34679;51.436;-2.518;2023-06-04T12:18:47;3.25;;;1.05;;
48859;SDS011;34679;51.436;-2.518;2023-06-04T12:21:21;2.72;;;1.58;;
48859;SDS011;34679;51.436;-2.518;2023-06-04T12:26:33;4.00;;;1.05;;
48859;SDS011;34679;51.436;-2.518;2023-06-04T12:29:06;4.07;;;1.60;;
48859;SDS011;34679;51.436;-2.518;2023-06-04T12:34:01;2.60;;;0.88;;
48859;SDS011;34679;51.436;-2.518;2023-06-04T12:36:27;3.30;;;1.10;;
48859;SDS011;34679;51.436;-2.518;2023-06-04T12:38:53;2.25;;;1.30;;
48859;SDS011;34679;51.436;-2.518;2023-06-04T12:41:24;3.55;;;1.52;;
48859;SDS011;34679;51.436;-2.518;2023-06-04T12:43:51;4.07;;;1.20;;
48859;SDS011;34679;51.436;-2.518;2023-06-04T12:46:17;6.53;;;1.35;;
48859;SDS011;34679;51.436;-2.518;2023-06-04T12:48:42;3.22;;;1.27;;
48859;SDS011;34679;51.436;-2.518;2023-06-04T12:51:08;4.38;;;1.42;;
48859;SDS011;34679;51.436;-2.518;2023-06-04T12:53:41;3.00;;;1.25;;
48859;SDS011;34679;51.436;-2.518;2023-06-04T12:56:07;14.70;;;1.75;;
48859;SDS011;34679;51.436;-2.518;2023-06-04T12:58:33;3.83;;;1.33;;
48859;SDS011;34679;51.436;-2.518;2023-06-04T13:00:59;5.03;;;1.30;;
48859;SDS011;34679;51.436;-2.518;2023-06-04T13:03:25;1.77;;;1.00;;
48859;SDS011;34679;51.436;-2.518;2023-06-04T13:05:52;3.33;;;1.40;;
48859;SDS011;34679;51.436;-2.518;2023-06-04T13:08:21;4.25;;;1.25;;
48859;SDS011;34679;51.436;-2.518;2023-06-04T13:10:48;2.70;;;1.20;;
48859;SDS011;34679;51.436;-2.518;2023-06-04T13:13:15;4.57;;;1.00;;
48859;SDS011;34679;51.436;-2.518;2023-06-04T13:15:44;3.05;;;1.23;;
48859;SDS011;34679;51.436;-2.518;2023-06-04T13:18:11;3.65;;;1.50;;
48859;SDS011;34679;51.436;-2.518;2023-06-04T13:20:37;3.75;;;1.38;;
48859;SDS011;34679;51.436;-2.518;2023-06-04T13:23:04;2.83;;;1.02;;
48859;SDS011;34679;51.436;-2.518;2023-06-04T13:25:30;3.10;;;1.40;;
48859;SDS011;34679;51.436;-2.518;2023-06-04T13:27:58;2.47;;;1.20;;
48859;SDS011;34679;51.436;-2.518;2023-06-04T13:30:25;2.28;;;1.35;;
48859;SDS011;34679;51.436;-2.518;2023-06-04T13:32:50;4.10;;;1.40;;
48859;SDS011;34679;51.436;-2.518;2023-06-04T13:35:17;3.88;;;1.35;;
48859;SDS011;34679;51.436;-2.518;2023-06-04T13:37:43;2.17;;;1.58;;
48859;SDS011;34679;51.436;-2.518;2023-06-04T13:40:08;1.65;;;1.20;;
48859;SDS011;34679;51.436;-2.518;2023-06-04T13:42:34;4.88;;;1.00;;
48859;SDS011;34679;51.436;-2.518;2023-06-04T13:45:00;3.15;;;1.00;;
48859;SDS011;34679;51.436;-2.518;2023-06-04T13:47:26;4.70;;;1.35;;
48859;SDS011;34679;51.436;-2.518;2023-06-04T13:49:52;3.88;;;1.35;;
48859;SDS011;34679;51.436;-2.518;2023-06-04T13:52:17;3.95;;;1.33;;
48859;SDS011;34679;51.436;-2.518;2023-06-04T13:54:43;3.45;;;1.48;;
48859;SDS011;34679;51.436;-2.518;2023-06-04T13:57:09;3.95;;;1.20;;
48859;SDS011;34679;51.436;-2.518;2023-06-04T13:59:36;2.78;;;1.30;;
48859;SDS011;34679;51.436;-2.518;2023-06-04T14:02:06;2.03;;;1.15;;
48859;SDS011;34679;51.436;-2.518;2023-06-04T14:04:31;3.42;;;1.48;;
48859;SDS011;34679;51.436;-2.518;2023-06-04T14:06:57;8.38;;;1.20;;
48859;SDS011;34679;51.436;-2.518;2023-06-04T14:09:23;4.30;;;1.98;;
48859;SDS011;34679;51.436;-2.518;2023-06-04T14:11:49;5.63;;;1.40;;
48859;SDS011;34679;51.436;-2.518;2023-06-04T14:14:19;2.17;;;1.30;;
48859;SDS011;34679;51.436;-2.518;2023-06-04T14:16:48;2.30;;;1.00;;
48859;SDS011;34679;51.436;-2.518;2023-06-04T14:19:14;6.10;;;1.63;;
48859;SDS011;34679;51.436;-2.518;2023-06-04T14:21:43;2.72;;;1.52;;
48859;SDS011;34679;51.436;-2.518;2023-06-04T14:24:10;3.17;;;1.30;;
48859;SDS011;34679;51.436;-2.518;2023-06-04T14:26:36;2.67;;;1.50;;
48859;SDS011;34679;51.436;-2.518;2023-06-04T14:29:02;6.47;;;1.50;;
48859;SDS011;34679;51.436;-2.518;2023-06-04T14:31:28;2.47;;;1.38;;
48859;SDS011;34679;51.436;-2.518;2023-06-04T14:33:54;3.75;;;1.10;;
48859;SDS011;34679;51.436;-2.518;2023-06-04T14:36:19;5.60;;;1.50;;
48859;SDS011;34679;51.436;-2.518;2023-06-04T14:38:46;1.90;;;1.42;;
48859;SDS011;34679;51.436;-2.518;2023-06-04T14:41:13;5.10;;;1.60;;
48859;SDS011;34679;51.436;-2.518;2023-06-04T14:43:39;2.15;;;1.40;;
48859;SDS011;34679;51.436;-2.518;2023-06-04T14:46:05;1.88;;;1.33;;